createdAt,value
2018-11-02T00:01:10.528Z,101107.34
2018-11-02T00:03:39.180Z,101122.11
2018-11-02T00:06:07.985Z,101143.07
2018-11-02T00:08:36.743Z,101139.13
2018-11-02T00:11:05.932Z,101123.19
2018-11-02T00:13:34.662Z,101124.69
2018-11-02T00:16:03.783Z,101125.15
2018-11-02T00:18:32.635Z,101118.01
2018-11-02T00:21:01.668Z,101105.97
2018-11-02T00:23:30.512Z,101111.23
2018-11-02T00:25:59.596Z,101113.22
2018-11-02T00:28:28.299Z,101113.65
2018-11-02T00:30:57.060Z,101115.99
2018-11-02T00:33:25.871Z,101109.91
2018-11-02T00:35:54.629Z,101116.52
2018-11-02T00:38:23.989Z,101113.00
2018-11-02T00:40:53.019Z,101114.71
2018-11-02T00:43:21.967Z,101115.64
2018-11-02T00:45:51.063Z,101117.27
2018-11-02T00:48:19.865Z,101109.38
2018-11-02T00:50:48.559Z,101114.07
2018-11-02T00:53:17.436Z,101109.19
2018-11-02T00:55:46.284Z,101111.19
2018-11-02T00:58:15.102Z,101110.73
2018-11-02T01:00:44.010Z,101118.52
2018-11-02T01:03:13.295Z,101127.55
2018-11-02T01:05:42.082Z,101120.94
2018-11-02T01:08:10.781Z,101124.17
2018-11-02T01:10:39.779Z,101116.18
2018-11-02T01:13:08.669Z,101104.37
2018-11-02T01:15:37.440Z,101099.48
2018-11-02T01:18:06.543Z,101119.80
2018-11-02T01:20:35.424Z,101131.94
2018-11-02T01:23:04.597Z,101149.02
2018-11-02T01:25:40.182Z,101158.92
2018-11-02T01:28:09.084Z,101164.35
2018-11-02T01:30:38.377Z,101160.56
2018-11-02T01:33:06.987Z,101170.24
2018-11-02T01:35:35.967Z,101177.30
2018-11-02T01:38:04.837Z,101166.05
2018-11-02T01:40:33.980Z,101169.73
2018-11-02T01:43:03.145Z,101163.86
2018-11-02T01:45:32.339Z,101159.78
2018-11-02T01:48:01.078Z,101172.16
2018-11-02T01:50:29.830Z,101182.12
2018-11-02T01:52:58.434Z,101178.04
2018-11-02T01:55:27.281Z,101181.88
2018-11-02T01:57:56.150Z,101181.70
2018-11-02T02:00:24.958Z,101182.83
2018-11-02T02:02:53.748Z,101185.30
2018-11-02T02:05:22.451Z,101190.29
2018-11-02T02:07:51.109Z,101186.29
2018-11-02T02:10:20.038Z,101191.33
2018-11-02T02:12:48.848Z,101193.78
2018-11-02T02:15:17.683Z,101184.06
2018-11-02T02:17:46.579Z,101174.27
2018-11-02T02:20:15.344Z,101168.20
2018-11-02T02:22:44.347Z,101177.75
2018-11-02T02:25:13.765Z,101169.50
2018-11-02T02:27:42.469Z,101181.52
2018-11-02T02:30:15.523Z,101187.50
2018-11-02T02:32:44.154Z,101191.39
2018-11-02T02:35:13.157Z,101198.61
2018-11-02T02:37:41.874Z,101205.17
2018-11-02T02:40:12.078Z,101223.27
2018-11-02T02:42:41.490Z,101226.81
2018-11-02T02:45:11.425Z,101236.95
2018-11-02T02:47:41.012Z,101231.02
2018-11-02T02:50:12.285Z,101235.79
2018-11-02T02:52:41.235Z,101230.09
2018-11-02T02:55:09.999Z,101228.10
2018-11-02T02:57:39.224Z,101230.25
2018-11-02T03:00:10.371Z,101222.97
2018-11-02T03:02:39.192Z,101233.30
2018-11-02T03:05:08.145Z,101233.30
2018-11-02T03:07:36.766Z,101234.79
2018-11-02T03:10:06.311Z,101230.05
2018-11-02T03:12:34.896Z,101241.98
2018-11-02T03:15:03.519Z,101233.77
2018-11-02T03:17:32.534Z,101229.86
2018-11-02T03:20:01.270Z,101246.39
2018-11-02T03:22:30.203Z,101248.68
2018-11-02T03:24:58.904Z,101253.91
2018-11-02T03:27:27.965Z,101255.80
2018-11-02T03:29:56.672Z,101250.77
2018-11-02T03:32:25.704Z,101247.26
2018-11-02T03:34:54.577Z,101249.25
2018-11-02T03:37:23.375Z,101248.12
2018-11-02T03:39:52.164Z,101235.66
2018-11-02T03:42:20.855Z,101239.66
2018-11-02T03:44:49.861Z,101250.23
2018-11-02T03:47:18.614Z,101259.12
2018-11-02T03:49:47.362Z,101262.56
2018-11-02T03:52:16.287Z,101261.58
2018-11-02T03:54:45.437Z,101257.42
2018-11-02T03:57:14.271Z,101266.38
2018-11-02T03:59:43.110Z,101261.50
2018-11-02T04:02:12.066Z,101268.40
2018-11-02T04:04:40.960Z,101256.95
2018-11-02T04:07:09.867Z,101266.38
2018-11-02T04:09:38.644Z,101267.04
2018-11-02T04:12:07.619Z,101270.45
2018-11-02T04:14:36.517Z,101275.06
2018-11-02T04:17:05.834Z,101285.30
2018-11-02T04:19:34.596Z,101275.48
2018-11-02T04:22:03.594Z,101277.61
2018-11-02T04:24:32.317Z,101283.70
2018-11-02T04:27:01.179Z,101286.52
2018-11-02T04:29:30.036Z,101287.34
2018-11-02T04:31:59.160Z,101281.44
2018-11-02T04:34:27.833Z,101278.34
2018-11-02T04:36:56.664Z,101288.42
2018-11-02T04:39:25.823Z,101296.53
2018-11-02T04:41:54.618Z,101292.94
2018-11-02T04:44:23.409Z,101302.23
2018-11-02T04:46:52.193Z,101314.45
2018-11-02T04:49:21.190Z,101312.72
2018-11-02T04:51:50.406Z,101315.82
2018-11-02T04:54:19.233Z,101319.47
2018-11-02T04:56:47.984Z,101329.95
2018-11-02T04:59:16.715Z,101330.18
2018-11-02T05:04:41.021Z,101342.15
2018-11-02T05:07:10.103Z,101346.27
2018-11-02T05:09:39.012Z,101345.20
2018-11-02T05:12:07.729Z,101331.33
2018-11-02T05:14:37.071Z,101331.81
2018-11-02T05:17:05.766Z,101336.87
2018-11-02T05:19:34.559Z,101336.98
2018-11-02T05:22:03.405Z,101337.43
2018-11-02T05:24:32.527Z,101344.60
2018-11-02T05:27:01.748Z,101350.97
2018-11-02T05:29:30.679Z,101363.34
2018-11-02T05:31:59.940Z,101362.86
2018-11-02T05:34:31.885Z,101370.85
2018-11-02T05:37:01.564Z,101369.95
2018-11-02T05:39:30.298Z,101376.88
2018-11-02T05:41:59.439Z,101385.08
2018-11-02T05:44:28.529Z,101388.36
2018-11-02T05:46:57.319Z,101394.16
2018-11-02T05:49:26.508Z,101396.86
2018-11-02T05:51:55.387Z,101391.02
2018-11-02T05:54:24.360Z,101391.38
2018-11-02T05:56:53.507Z,101391.02
2018-11-02T05:59:22.322Z,101389.66
2018-11-02T06:01:51.176Z,101407.84
2018-11-02T06:04:19.979Z,101419.45
2018-11-02T06:06:48.980Z,101426.30
2018-11-02T06:09:17.840Z,101357.78
2018-11-02T06:11:46.489Z,101395.58
2018-11-02T06:14:15.283Z,101396.75
2018-11-02T06:16:44.393Z,101409.94
2018-11-02T06:19:13.190Z,101414.46
2018-11-02T06:21:42.090Z,101421.72
2018-11-02T06:24:10.743Z,101430.50
2018-11-02T06:26:39.566Z,101433.73
2018-11-02T06:29:08.747Z,101437.49
2018-11-02T06:31:37.699Z,101442.16
2018-11-02T06:34:06.780Z,101453.48
2018-11-02T06:36:35.791Z,101454.78
2018-11-02T06:39:06.186Z,101463.33
2018-11-02T06:41:35.044Z,101461.92
2018-11-02T06:44:04.138Z,101472.30
2018-11-02T06:46:33.091Z,101480.45
2018-11-02T06:49:01.932Z,101485.63
2018-11-02T06:51:30.741Z,101499.81
2018-11-02T06:53:59.623Z,101498.23
2018-11-02T06:56:28.513Z,101508.44
2018-11-02T06:58:57.677Z,101511.77
2018-11-02T07:01:26.579Z,101509.27
2018-11-02T07:03:55.316Z,101510.63
2018-11-02T07:06:24.209Z,101512.06
2018-11-02T07:08:52.858Z,101519.42
2018-11-02T07:11:28.411Z,101520.50
2018-11-02T07:13:57.597Z,101517.06
2018-11-02T07:16:26.266Z,101530.49
2018-11-02T07:18:55.057Z,101532.23
2018-11-02T07:21:23.946Z,101529.07
2018-11-02T07:23:52.801Z,101531.03
2018-11-02T07:26:21.848Z,101534.27
2018-11-02T07:28:50.606Z,101543.69
2018-11-02T07:31:20.160Z,101536.58
2018-11-02T07:33:48.990Z,101539.22
2018-11-02T07:36:17.639Z,101541.41
2018-11-02T07:38:46.374Z,101542.89
2018-11-02T07:41:15.203Z,101543.89
2018-11-02T07:43:43.951Z,101544.58
2018-11-02T07:46:12.657Z,101551.22
2018-11-02T07:48:41.775Z,101562.59
2018-11-02T07:51:10.832Z,101567.76
2018-11-02T07:53:39.936Z,101574.03
2018-11-02T07:56:08.844Z,101583.80
2018-11-02T07:58:37.600Z,101588.88
2018-11-02T08:01:06.838Z,101588.08
2018-11-02T08:03:35.626Z,101587.43
2018-11-02T08:06:04.714Z,101593.02
2018-11-02T08:08:33.467Z,101588.23
2018-11-02T08:11:02.487Z,101598.73
2018-11-02T08:13:31.466Z,101607.13
2018-11-02T08:16:00.262Z,101605.59
2018-11-02T08:18:29.154Z,101613.11
2018-11-02T08:20:58.093Z,101608.88
2018-11-02T08:23:27.159Z,101610.67
2018-11-02T08:25:57.051Z,101622.00
2018-11-02T08:28:25.774Z,101622.66
2018-11-02T08:30:54.848Z,101621.84
2018-11-02T08:33:24.048Z,101620.26
2018-11-02T08:35:52.834Z,101625.78
2018-11-02T08:38:21.466Z,101636.77
2018-11-02T08:40:50.192Z,101638.88
2018-11-02T08:43:18.988Z,101637.75
2018-11-02T08:45:47.783Z,101638.59
2018-11-02T08:48:16.554Z,101643.02
2018-11-02T08:50:45.378Z,101640.69
2018-11-02T08:53:14.665Z,101638.06
2018-11-02T08:55:43.459Z,101636.79
2018-11-02T08:58:15.352Z,101640.99
2018-11-02T09:00:44.412Z,101643.98
2018-11-02T09:03:13.161Z,101641.84
2018-11-02T09:05:42.107Z,101647.95
2018-11-02T09:08:11.095Z,101649.98
2018-11-02T09:10:40.782Z,101655.25
2018-11-02T09:13:09.494Z,101658.86
2018-11-02T09:15:38.275Z,101660.50
2018-11-02T09:18:07.251Z,101660.79
2018-11-02T09:20:36.479Z,101666.27
2018-11-02T09:23:05.469Z,101673.14
2018-11-02T09:25:34.322Z,101679.72
2018-11-02T09:28:03.311Z,101683.57
2018-11-02T09:30:32.019Z,101690.44
2018-11-02T09:33:00.631Z,101689.63
2018-11-02T09:35:29.501Z,101701.77
2018-11-02T09:37:58.600Z,101704.24
2018-11-02T09:40:27.516Z,101710.02
2018-11-02T09:42:56.547Z,101706.47
2018-11-02T09:45:25.384Z,101703.44
2018-11-02T09:47:54.544Z,101708.63
2018-11-02T09:50:23.247Z,101710.31
2018-11-02T09:52:51.984Z,101711.72
2018-11-02T09:55:21.011Z,101703.45
2018-11-02T09:57:49.937Z,101702.95
2018-11-02T10:00:19.007Z,101687.55
2018-11-02T10:02:47.887Z,101694.97
2018-11-02T10:05:16.690Z,101687.30
2018-11-02T10:07:45.501Z,101697.19
2018-11-02T10:10:14.479Z,101698.30
2018-11-02T10:12:43.444Z,101698.02
2018-11-02T10:15:14.044Z,101704.34
2018-11-02T10:17:42.739Z,101697.94
2018-11-02T10:20:12.196Z,101694.72
2018-11-02T10:22:41.481Z,101693.81
2018-11-02T10:25:11.887Z,101710.03
2018-11-02T10:27:42.811Z,101716.61
2018-11-02T10:30:13.452Z,101717.93
2018-11-02T10:32:43.928Z,101716.05
2018-11-02T10:35:12.890Z,101704.45
2018-11-02T10:37:41.631Z,101696.27
2018-11-02T10:40:13.592Z,101708.71
2018-11-02T10:42:43.130Z,101706.56
2018-11-02T10:45:12.175Z,101721.40
2018-11-02T10:47:41.219Z,101731.03
2018-11-02T10:50:10.034Z,101733.41
2018-11-02T10:52:38.654Z,101732.58
2018-11-02T10:55:07.722Z,101726.55
2018-11-02T10:57:36.520Z,101734.20
2018-11-02T11:00:10.263Z,101728.42
2018-11-02T11:02:39.157Z,101738.03
2018-11-02T11:05:08.730Z,101733.31
2018-11-02T11:07:37.510Z,101736.16
2018-11-02T11:10:08.432Z,101744.86
2018-11-02T11:12:37.387Z,101739.59
2018-11-02T11:15:06.410Z,101733.52
2018-11-02T11:17:35.286Z,101734.90
2018-11-02T11:20:04.167Z,101725.13
2018-11-02T11:22:33.271Z,101730.86
2018-11-02T11:25:02.023Z,101732.09
2018-11-02T11:27:30.964Z,101745.50
2018-11-02T11:29:59.796Z,101744.94
2018-11-02T11:32:28.835Z,101753.34
2018-11-02T11:34:57.722Z,101762.67
2018-11-02T11:37:26.531Z,101766.62
2018-11-02T11:39:55.503Z,101755.98
2018-11-02T11:42:25.013Z,101750.14
2018-11-02T11:44:53.914Z,101752.12
2018-11-02T11:47:22.722Z,101760.83
2018-11-02T11:49:51.586Z,101762.21
2018-11-02T11:52:20.416Z,101767.81
2018-11-02T11:55:52.042Z,101777.96
2018-11-02T11:58:20.945Z,101777.00
2018-11-02T12:00:49.994Z,101773.66
2018-11-02T12:03:18.866Z,101775.87
2018-11-02T12:05:47.705Z,101776.30
2018-11-02T12:08:16.952Z,101777.19
2018-11-02T12:10:45.715Z,101774.99
2018-11-02T12:13:14.792Z,101775.42
2018-11-02T12:15:45.720Z,101773.44
2018-11-02T12:18:14.604Z,101781.63
2018-11-02T12:20:43.513Z,101778.51
2018-11-02T12:23:12.275Z,101778.22
2018-11-02T12:25:41.111Z,101776.38
2018-11-02T12:28:10.207Z,101769.25
2018-11-02T12:30:39.279Z,101770.34
2018-11-02T12:33:08.152Z,101772.73
2018-11-02T12:35:37.076Z,101765.98
2018-11-02T12:38:06.511Z,101767.76
2018-11-02T12:40:35.463Z,101761.94
2018-11-02T12:43:04.139Z,101768.16
2018-11-02T12:45:33.220Z,101774.27
2018-11-02T12:48:02.242Z,101777.89
2018-11-02T12:50:31.237Z,101773.91
2018-11-02T12:53:00.566Z,101785.38
2018-11-02T12:55:29.468Z,101787.98
2018-11-02T12:57:58.112Z,101796.02
2018-11-02T13:00:28.055Z,101796.05
2018-11-02T13:02:56.931Z,101799.13
2018-11-02T13:05:25.659Z,101804.98
2018-11-02T13:07:54.975Z,101797.34
2018-11-02T13:10:24.113Z,101796.84
2018-11-02T13:12:52.840Z,101804.05
2018-11-02T13:15:23.049Z,101800.16
2018-11-02T13:17:52.109Z,101814.52
2018-11-02T13:20:21.058Z,101811.39
2018-11-02T13:22:50.707Z,101802.60
2018-11-02T13:25:20.995Z,101798.69
2018-11-02T13:27:50.545Z,101808.53
2018-11-02T13:30:19.326Z,101812.87
2018-11-02T13:32:47.978Z,101818.08
2018-11-02T13:35:18.155Z,101825.90
2018-11-02T13:37:47.548Z,101832.27
2018-11-02T13:40:17.483Z,101842.78
2018-11-02T13:42:46.609Z,101850.19
2018-11-02T13:45:16.688Z,101855.39
2018-11-02T13:47:45.892Z,101853.46
2018-11-02T13:50:14.704Z,101859.84
2018-11-02T13:52:44.067Z,101848.29
2018-11-02T13:55:13.430Z,101847.25
2018-11-02T13:57:42.353Z,101846.17
2018-11-02T14:00:16.237Z,101838.98
2018-11-02T14:02:45.420Z,101842.25
2018-11-02T14:05:15.602Z,101842.75
2018-11-02T14:07:44.818Z,101837.23
2018-11-02T14:10:14.197Z,101831.14
2018-11-02T14:12:43.090Z,101836.06
2018-11-02T14:15:13.347Z,101841.78
2018-11-02T14:17:42.795Z,101848.36
2018-11-02T14:20:12.419Z,101850.16
2018-11-02T14:22:41.163Z,101853.49
2018-11-02T14:25:13.317Z,101863.75
2018-11-02T14:27:42.372Z,101875.66
2018-11-02T14:30:16.143Z,101868.78
2018-11-02T14:32:45.632Z,101877.10
2018-11-02T14:35:14.350Z,101882.34
2018-11-02T14:37:43.279Z,101877.37
2018-11-02T14:40:12.354Z,101879.61
2018-11-02T14:42:41.838Z,101872.95
2018-11-02T14:45:14.026Z,101874.16
2018-11-02T14:47:43.140Z,101876.32
2018-11-02T14:50:12.295Z,101878.59
2018-11-02T14:52:41.159Z,101882.70
2018-11-02T14:55:10.850Z,101879.70
2018-11-02T14:57:39.847Z,101883.57
2018-11-02T15:00:10.108Z,101891.29
2018-11-02T15:02:39.267Z,101898.98
2018-11-02T15:05:09.459Z,101897.31
2018-11-02T15:07:38.047Z,101892.33
2018-11-02T15:10:07.131Z,101901.37
2018-11-02T15:12:36.096Z,101912.09
2018-11-02T15:15:05.191Z,101915.34
2018-11-02T15:17:33.823Z,101915.52
2018-11-02T15:20:02.732Z,101923.12
2018-11-02T15:22:31.822Z,101919.78
2018-11-02T15:25:00.591Z,101924.36
2018-11-02T15:27:29.631Z,101924.08
2018-11-02T15:29:58.381Z,101926.62
2018-11-02T15:32:27.196Z,101922.19
2018-11-02T15:34:56.279Z,101927.77
2018-11-02T15:37:25.451Z,101938.27
2018-11-02T15:39:54.238Z,101948.95
2018-11-02T15:42:23.176Z,101950.41
2018-11-02T15:44:52.047Z,101961.58
2018-11-02T15:47:20.855Z,101960.70
2018-11-02T15:49:50.717Z,101969.48
2018-11-02T15:52:19.552Z,101965.87
2018-11-02T15:54:48.418Z,101975.73
2018-11-02T15:57:18.551Z,101978.94
2018-11-02T15:59:47.435Z,101975.59
2018-11-02T16:02:16.342Z,101987.03
2018-11-02T16:04:45.199Z,101980.05
2018-11-02T16:07:14.023Z,101977.30
2018-11-02T16:09:42.817Z,101977.53
2018-11-02T16:12:11.745Z,101962.41
2018-11-02T16:14:40.357Z,101965.09
2018-11-02T16:17:09.171Z,101958.53
2018-11-02T16:19:37.943Z,101954.12
2018-11-02T16:22:06.863Z,101948.45
2018-11-02T16:24:35.618Z,101963.55
2018-11-02T16:27:04.344Z,101959.09
2018-11-02T16:29:35.927Z,101974.75
2018-11-02T16:32:04.911Z,101976.11
2018-11-02T16:34:33.749Z,101969.19
2018-11-02T16:37:02.546Z,101983.29
2018-11-02T16:39:31.339Z,101981.23
2018-11-02T16:42:00.631Z,101981.50
2018-11-02T16:44:29.398Z,101979.35
2018-11-02T16:46:58.421Z,101990.49
2018-11-02T16:49:27.556Z,102002.61
2018-11-02T16:51:56.616Z,102014.73
2018-11-02T16:54:25.411Z,102016.37
2018-11-02T16:56:54.391Z,102018.27
2018-11-02T16:59:23.211Z,102020.85
2018-11-02T17:01:51.937Z,102028.92
2018-11-02T17:04:20.720Z,102044.48
2018-11-02T17:06:49.735Z,102055.52
2018-11-02T17:09:18.831Z,102051.84
2018-11-02T17:11:47.878Z,102056.58
2018-11-02T17:14:16.418Z,102058.61
2018-11-02T17:16:45.300Z,102054.80
2018-11-02T17:19:14.455Z,102063.45
2018-11-02T17:21:46.256Z,102062.23
2018-11-02T17:24:15.737Z,102073.60
2018-11-02T17:26:44.549Z,102082.99
2018-11-02T17:29:14.550Z,102088.03
2018-11-02T17:31:43.980Z,102087.65
2018-11-02T17:34:13.077Z,102094.65
2018-11-02T17:36:42.094Z,102090.38
2018-11-02T17:39:12.587Z,102094.09
2018-11-02T17:41:41.399Z,102098.05
2018-11-02T17:44:10.689Z,102111.27
2018-11-02T17:46:40.576Z,102117.42
2018-11-02T17:49:09.460Z,102123.53
2018-11-02T17:51:38.839Z,102121.38
2018-11-02T17:54:07.650Z,102119.48
2018-11-02T17:56:36.739Z,102128.85
2018-11-02T17:59:05.798Z,102132.06
2018-11-02T18:01:34.454Z,102134.75
2018-11-02T18:04:03.237Z,102133.38
2018-11-02T18:06:32.300Z,102136.20
2018-11-02T18:09:01.626Z,102138.58
2018-11-02T18:11:30.667Z,102128.98
2018-11-02T18:13:59.596Z,102129.69
2018-11-02T18:16:29.063Z,102133.07
2018-11-02T18:18:57.967Z,102136.62
2018-11-02T18:21:26.851Z,102145.67
2018-11-02T18:23:55.776Z,102146.88
2018-11-02T18:26:24.780Z,102151.81
2018-11-02T18:28:53.567Z,102150.02
2018-11-02T18:31:22.408Z,102156.30
2018-11-02T18:33:51.357Z,102162.09
2018-11-02T18:36:20.992Z,102170.58
2018-11-02T18:38:50.570Z,102169.88
2018-11-02T18:41:20.183Z,102175.45
2018-11-02T18:43:49.727Z,102182.53
2018-11-02T18:46:19.305Z,102195.87
2018-11-02T18:48:48.797Z,102191.80
2018-11-02T18:51:18.314Z,102189.84
2018-11-02T18:53:48.248Z,102198.48
2018-11-02T18:56:17.751Z,102195.70
2018-11-02T18:58:47.445Z,102202.58
2018-11-02T19:01:17.186Z,102208.39
2018-11-02T19:03:46.604Z,102211.35
2018-11-02T19:06:16.226Z,102218.22
2018-11-02T19:08:46.238Z,102209.31
2018-11-02T19:11:15.909Z,102215.28
2018-11-02T19:13:46.231Z,102213.92
2018-11-02T19:16:15.941Z,102213.15
2018-11-02T19:18:46.278Z,102217.51
2018-11-02T19:21:15.888Z,102226.77
2018-11-02T19:23:45.683Z,102227.88
2018-11-02T19:26:15.802Z,102175.25
2018-11-02T19:28:45.596Z,102234.03
2018-11-02T19:31:15.173Z,102239.33
2018-11-02T19:33:44.844Z,102248.49
2018-11-02T19:36:14.637Z,102244.72
2018-11-02T19:38:45.414Z,102246.91
2018-11-02T19:41:15.175Z,102256.29
2018-11-02T19:43:44.652Z,102265.98
2018-11-02T19:46:14.192Z,102267.81
2018-11-02T19:48:43.978Z,102271.43
2018-11-02T19:51:13.328Z,102283.94
2018-11-02T19:53:43.929Z,102287.19
2018-11-02T19:56:13.435Z,102282.02
2018-11-02T19:58:42.903Z,102286.35
2018-11-02T20:01:12.441Z,102292.64
2018-11-02T20:03:41.933Z,102306.41
2018-11-02T20:06:11.983Z,102310.04
2018-11-02T20:08:41.440Z,102309.42
2018-11-02T20:11:10.941Z,102304.53
2018-11-02T20:14:57.420Z,102301.34
2018-11-02T20:17:32.325Z,102295.36
2018-11-02T20:20:05.467Z,102281.43
2018-11-02T20:22:38.170Z,102283.22
2018-11-02T20:25:10.085Z,102287.31
2018-11-02T20:27:42.884Z,102296.47
2018-11-02T20:30:19.027Z,102290.81
2018-11-02T20:32:53.857Z,102285.83
2018-11-02T20:35:27.010Z,102290.66
2018-11-02T20:37:59.551Z,102296.88
2018-11-02T20:40:29.701Z,102313.69
2018-11-02T20:42:58.581Z,102317.91
2018-11-02T20:45:28.605Z,102327.12
2018-11-02T20:47:57.767Z,102316.33
2018-11-02T20:50:28.126Z,102309.14
2018-11-02T20:52:57.276Z,102309.05
2018-11-02T20:55:27.344Z,102317.68
2018-11-02T20:57:56.644Z,102318.26
2018-11-02T21:00:25.997Z,102315.02
2018-11-02T21:02:55.013Z,102317.64
2018-11-02T21:05:23.965Z,102323.92
2018-11-02T21:07:54.587Z,102318.10
2018-11-02T21:10:24.373Z,102319.62
2018-11-02T21:12:55.277Z,102316.99
2018-11-02T21:15:26.918Z,102321.36
2018-11-02T21:17:57.187Z,102326.16
2018-11-02T21:20:27.131Z,102325.03
2018-11-02T21:22:55.768Z,102336.75
2018-11-02T21:25:27.812Z,102327.89
2018-11-02T21:28:00.097Z,102328.63
2018-11-02T21:30:32.568Z,102338.22
2018-11-02T21:33:04.929Z,102346.08
2018-11-02T21:35:33.976Z,102346.80
2018-11-02T21:38:02.955Z,102354.80
2018-11-02T21:40:31.731Z,102356.76
2018-11-02T21:43:00.638Z,102352.08
2018-11-02T21:45:29.583Z,102345.11
2018-11-02T21:48:02.301Z,102350.31
2018-11-02T21:50:31.402Z,102347.20
2018-11-02T21:53:00.267Z,102347.04
2018-11-02T21:55:29.376Z,102343.86
2018-11-02T21:57:58.470Z,102361.05
2018-11-02T22:00:27.356Z,102367.30
2018-11-02T22:02:56.110Z,102360.28
2018-11-02T22:05:24.934Z,102364.31
2018-11-02T22:07:53.834Z,102381.09
2018-11-02T22:10:22.778Z,102382.66
2018-11-02T22:12:53.450Z,102376.20
2018-11-02T22:15:27.768Z,102381.56
2018-11-02T22:17:57.375Z,102383.97
2018-11-02T22:20:26.208Z,102394.17
2018-11-02T22:22:55.171Z,102393.55
2018-11-02T22:25:24.054Z,102388.96
2018-11-02T22:27:52.794Z,102382.83
2018-11-02T22:30:21.555Z,102383.22
2018-11-02T22:32:50.648Z,102378.89
2018-11-02T22:35:19.704Z,102384.97
2018-11-02T22:37:48.428Z,102392.92
2018-11-02T22:40:17.119Z,102388.37
2018-11-02T22:42:46.068Z,102388.37
2018-11-02T22:45:15.708Z,102394.12
2018-11-02T22:47:49.605Z,102401.11
2018-11-02T22:50:18.675Z,102387.55
2018-11-02T22:52:47.608Z,102394.30
2018-11-02T22:55:17.813Z,102401.39
2018-11-02T22:57:46.593Z,102399.64
2018-11-02T23:00:17.411Z,102392.81
2018-11-02T23:02:46.867Z,102393.91
2018-11-02T23:05:15.652Z,102389.13
2018-11-02T23:07:45.089Z,102382.56
2018-11-02T23:10:16.799Z,102386.30
2018-11-02T23:12:45.709Z,102384.64
2018-11-02T23:15:14.683Z,102395.39
2018-11-02T23:17:46.453Z,102395.23
2018-11-02T23:20:15.663Z,102378.77
2018-11-02T23:22:46.290Z,102376.94
2018-11-02T23:25:16.106Z,102369.20
2018-11-02T23:27:45.511Z,102376.63
2018-11-02T23:30:14.336Z,102369.81
2018-11-02T23:32:45.988Z,102363.30
2018-11-02T23:35:17.042Z,102357.02
2018-11-02T23:37:47.866Z,102366.63
2018-11-02T23:40:20.684Z,102362.53
2018-11-02T23:42:49.903Z,102371.16
2018-11-02T23:45:19.788Z,102372.58
2018-11-02T23:47:54.844Z,102375.09
2018-11-02T23:50:25.068Z,102387.67
2018-11-02T23:52:54.156Z,102366.39
2018-11-02T23:55:23.644Z,102367.81
2018-11-02T23:57:54.187Z,102366.69
